Suggestion Search

Define a bounding box (note: it will not wrap North/South over poles). If the range is zero degrees, a bounding box will not be used to constrain the search.

Centered On °   °

Match text in the suggestion title, science rationale or special notes. The search is case-insensitive. % is a wildcard (_ for a single character).

Find
Search

You may select science themes to limit query, otherwise suggestions from all themes will be returned.

Multiple values may be selected (shift + click).

  Rows per page
172 records found, displaying 1 to 100.[First/Prev] 1, 2 [Next/Last]
ID Suggestion Title Latitude Longitude Repeat Created Observation ID
11536 Possible collapse feature in impact crater ejecta 39.729 105.642 1 2007-05-25 PSP_005933_2200
11558 Layered walls of impact crater in Mawrth Vallis outcrops 23.969 339.150 STEREO 2007-05-29 ESP_016895_2045
11560 Layered walls of impact crater in Mawrth Vallis outcrops 23.969 339.150 STEREO 2007-05-29 ESP_017040_2045
11562 Inverted terrain in Mawrth Vallis region 25.917 341.573 STEREO 2007-05-29 ESP_013084_2060
11564 Inverted terrain in Mawrth Vallis region 25.917 341.573 STEREO 2007-05-29 ESP_013361_2060
17110 Stratigraphy of knobs in Ariadnes Colles -34.961 173.784 STEREO 2007-11-07 PSP_007368_1445
17112 Stratigraphy of knobs in Ariadnes Colles -34.961 173.784 STEREO 2007-11-07 PSP_010717_1445
17114 East portion of flow in Harmakhis Vallis -37.743 95.570 1 2007-11-07 ESP_012434_1420
17116 Possible collapse feature in impact crater ejecta 39.729 105.642 1 2007-11-07 ESP_011286_2200
17190 East portion of flow in Harmakhis Vallis -37.743 95.570 1 2007-11-08 ESP_012579_1420
19106 Clay-bearing unit in western Arabia region 18.207 335.472 STEREO 2007-12-19 PSP_009735_1985
19108 Clay bearing unit in western Arabia region 18.207 335.472 STEREO 2007-12-19 PSP_009880_1985
19298 Light-toned outcrops east of PSP_005740_1970 16.738 337.023 STEREO 2007-12-28 ESP_011937_1970
19300 Light-toned outcrops east of HiRISE image PSP_005740_1970 16.738 337.023 STEREO 2007-12-28 ESP_012214_1970
23380 Stratigraphy in Aureum Chaos -3.716 334.013 STEREO 2008-04-08 PSP_008443_1760
23382 Stratigraphy in Aureum Chaos -3.716 334.013 STEREO 2008-04-08 PSP_008944_1760
25848 Light-toned hummock in Iani region -0.112 342.578 STEREO 2008-07-01 ESP_012016_1800
25850 Light-toned hummock in Iani region -0.112 342.578 STEREO 2008-07-01 ESP_012293_1800
25856 Light-toned outcrop in hummock of Iani Chaos -0.669 341.995 STEREO 2008-07-01 ESP_012438_1795
25858 Light-toned outcrop in hummock of Iani Chaos -0.669 341.995 STEREO 2008-07-01 ESP_012728_1795
25860 Light-toned outcrop in hummock of Iani Chaos -1.040 342.567 STEREO 2008-07-01 ESP_013717_1790
25862 Light-toned outcrop in hummock of Iani Chaos -1.040 342.567 STEREO 2008-07-01 ESP_013862_1790
25864 Light-toned units on hummocks of chaotic terrain -4.131 341.643 STEREO 2008-07-01 PSP_009603_1760
25866 Light-toned units on hummocks of chaotic terrain -4.131 341.643 STEREO 2008-07-01 PSP_010236_1760
25868 Light-toned outcrops in Iani Chaos -3.813 341.408 STEREO 2008-07-01 ESP_016328_1760
25870 Light-toned outcrops in Iani Chaos -3.813 341.408 STEREO 2008-07-01 ESP_016473_1760
53200 Layers on wall of crater interrupting channel 18.724 346.160 STEREO 2010-09-22 ESP_031782_1990
54478 Layers on wall of crater interrupting channel 18.724 346.160 STEREO 2010-10-17 ESP_031927_1990
63234 Massifs northwest of Hellas Planitia -30.935 53.690 1 2011-07-26 ESP_031226_1490
63604 Diverse periglacial terrain -38.771 181.516 STEREO 2011-08-14
93333 Diverse periglacial terrain -38.771 181.516 STEREO 2011-08-14 ESP_033964_1410
66684 Phyllosilicate deposits in NW Hellas -26.907 55.074 STEREO 2011-11-29 ESP_028958_1525
66686 Phyllosilicate deposits of possible hydrothermal origins in exhumed terrain -26.490 55.095 STEREO 2011-11-29 ESP_027270_1530
66688 Phyllosilicate deposits of possible hydrothermal origins in exhumed terrain -26.490 55.095 STEREO 2011-11-29 ESP_027758_1530
66818 Fresh crater in Hellas Basin with striated interior fill and pillow ejecta -32.505 48.464 1 2011-12-03 ESP_025978_1470
66826 Light toned outcrop in north Hellas Planitia rim -25.909 57.721 1 2011-12-03 ESP_030316_1540
66954 Mesas in partly exhumed crater in northeast Hellas Planitia -19.694 78.084 1 2011-12-10 ESP_027190_1600
66956 Mesas in partly exhumed crater in NE Hellas -19.684 78.184 1 2011-12-10 ESP_027401_1600
66958 Rocky out crop in Terra Sabaea in NE Hellas -20.002 79.162 1 2011-12-10
66960 Rocky outcrop in Terra Sabaea -20.087 79.247 1 2011-12-10 ESP_028456_1595
66962 Rocky outcrop in Terra Sabaea -20.129 79.354 1 2011-12-10 ESP_030869_1595
66964 Rocky out crop in Terra Sabaea -21.963 79.969 1 2011-12-10 ESP_036539_1580
66966 Rocky outcrop in Terra Sabaea -25.394 82.606 1 2011-12-10 ESP_026069_1545
66968 Rocky outcrop northeast of Hellas Planitia -26.785 84.650 1 2011-12-10 ESP_026781_1530
66970 Rocky outcrop in southeast Hellas Planitia -52.110 95.164 1 2011-12-10 ESP_028838_1275
66972 Rocky out crop southeast of Hellas Planitia -51.836 96.751 1 2011-12-10 ESP_032108_1280
66974 Rocky outcrop in southeast Hellas region -55.451 98.201 1 2011-12-10 ESP_030974_1240
66976 Rocky outcrop in southeast Hellas region -55.460 109.182 1 2011-12-10 ESP_029510_1240
66978 Outcrops southeast of Hellas region -56.041 110.676 1 2011-12-10 ESP_029299_1235
66980 Outcrops southeast of Hellas Planitia -57.763 109.688 1 2011-12-10 ESP_030222_1220
67460 Diverse periglacial terrain -38.771 181.516 STEREO 2011-12-18
69964 Phyllosilicate deposits in NW Hellas -26.907 55.074 STEREO 2012-02-23 ESP_028958_1525
70220 Knob in northwest Hellas Planitia -27.010 55.091 STEREO 2012-03-02 ESP_028958_1525
70224 Possible prehnite and chlorite bearing deposits in Hellas region -26.219 56.272 STEREO 2012-03-02 ESP_028536_1535
70226 Possible prehnite-bearing deposits in northwest Hellas Planitia -26.294 56.189 STEREO 2012-03-02 ESP_027903_1535
70262 Knob in northwest Hellas Planitia -27.010 55.091 STEREO 2012-03-03 ESP_037753_1525
70264 Possible prehnite and chlorite bearing deposits in Hellas region -26.219 56.272 STEREO 2012-03-03 ESP_028602_1535
70266 Possible prehnite-bearing deposits in northwest Hellas Planitia -26.294 56.189 STEREO 2012-03-03 ESP_026571_1535
71272 Dissected outcrops on crater floor -13.826 36.562 1 2012-03-18 ESP_027297_1660
75594 Light toned outcrops in south wall of Capri Chasma -15.649 307.848 1 2012-07-13 ESP_030676_1640
75598 Layered outcrops in rim of crater west of Tikhonravov Crater 11.450 32.423 STEREO 2012-07-14 ESP_030119_1915
75600 Dissected fan deposit in Libya Montes -0.535 86.031 1 2012-07-14 ESP_029049_1795
75602 Dissected fan deposit in Libya Montes -0.601 85.951 1 2012-07-14 ESP_029616_1795
75604 Dissected fan deposit in Libya Montes -0.572 85.860 1 2012-07-14 ESP_029827_1795
75606 Etched terrain north of Hellas region -24.615 60.889 STEREO 2012-07-14 ESP_029116_1550
75608 Etched terrain north of Hellas region -24.369 60.853 STEREO 2012-07-14 ESP_030039_1555
75610 Isolated colles unit -4.306 59.359 STEREO 2012-07-14 ESP_029828_1755
75612 Isolated colles unit -4.332 59.279 STEREO 2012-07-14 ESP_030896_1755
75614 Isolated knobs -4.220 59.436 STEREO 2012-07-14 ESP_029261_1755
75616 Isolated knobs -4.161 59.502 STEREO 2012-07-14 ESP_029617_1760
75618 Crater with concentric layering 53.811 50.625 STEREO 2012-07-14 ESP_033876_2340
75620 Escarpment at northern end of Tempe Terra 46.008 275.870 STEREO 2012-07-14 ESP_028488_2265
75622 Escarpment at northern end of Tempe Terra 46.035 275.950 STEREO 2012-07-14 ESP_036782_2265
75624 Escarpment at northern end of Tempe Terra 46.089 275.989 STEREO 2012-07-14 ESP_036782_2265
75626 Broad sinuous ridge in fretted terrain 33.811 64.962 1 2012-07-14 ESP_046535_2140
75628 Intra-valley lobate debris apron -41.502 112.244 STEREO 2012-07-15 ESP_033927_1380
76656 Ice-rich lobate debris apron 42.100 18.500 STEREO 2012-08-11 ESP_033363_2225
79796 Possible volcanic vent near Gale Crater -4.043 140.230 1 2012-10-13 ESP_033517_1760
81012 Cross section of hummocks in Atlantis Chaos -34.814 181.313 STEREO 2012-11-05 ESP_030061_1450
81262 Cross section of hummocks in Atlantis Chaos -34.814 181.313 STEREO 2012-11-15 ESP_030351_1450
88154 Prehnite deposits in northwest Hellas region -26.222 56.365 STEREO 2013-05-02 ESP_039982_1535
88334 Sulfates in northwest Hellas region -24.017 56.222 STEREO 2013-05-09 ESP_049054_1555
88338 Smectite deposits in northwest Hellas region -20.935 53.256 STEREO 2013-05-09 ESP_039270_1590
88346 Possible smectite deposits in northwest Hellas region -21.673 57.241 STEREO 2013-05-10 ESP_033652_1580
88352 Remnant dissected surface -22.733 61.108 STEREO 2013-05-10 ESP_036988_1570
88354 Remnant dissected surface -22.702 61.019 STEREO 2013-05-10 ESP_046786_1570
88414 Possible hydrated material on rim of massif in northwest Hellas region -23.312 62.678 STEREO 2013-05-14 ESP_032386_1565
88416 Layered light-toned crater-filling material in northwest Hellas region -25.195 62.005 STEREO 2013-05-14 ESP_033520_1545
88522 Bedrock north of Hellas Planitia -27.245 60.606 STEREO 2013-05-15 ESP_033942_1525
88526 Possible hydrated-silica-bearing material in northwest Hellas Planitia -27.831 60.529 STEREO 2013-05-16 ESP_034364_1520
88724 Layered units in northwest Hellas region -28.885 64.778 STEREO 2013-05-20 ESP_039863_1510
88734 Layered units in northwest Hellas Planitia -26.875 63.022 STEREO 2013-05-20 ESP_033876_1530
88766 Layer and color boundaries at Mawrth Vallis 22.515 342.114 STEREO 2013-05-21 ESP_033615_2030
88774 Layered crater wall in northwest Hellas Planitia -32.664 56.945 STEREO 2013-05-22 ESP_041116_1470
88776 Layered knob in northwest Hellas Planitia -32.799 56.755 STEREO 2013-05-22 ESP_033929_1470
88782 Massif in northwest Hellas region -25.002 55.189 STEREO 2013-05-24 ESP_033006_1545
88832 Chlorite-bearing outcrops in CRISM data -27.318 65.194 STEREO 2013-05-28 ESP_032320_1525
88844 Possible chlorite-bearing knob in northwest Hellas region -26.797 66.312 STEREO 2013-05-30 ESP_035656_1530
88882 Impact crater into side of massif -25.359 66.011 STEREO 2013-06-03 ESP_039230_1545
88886 Remnant dissected surface -22.733 61.108 STEREO 2013-06-03 ESP_043186_1570

Each suggestion is given a unique ID. A stereo suggestion will be made into a pair at the discretion of the Science Theme Lead.

Suggestion title.

Latitudes are expressed in planetocentric degrees.

Longitude are measured in degrees and range east from 0 to 360.

1 for a single suggestion, STEREO for a stereo suggestion, otherwise the number of suggestions in a seasonal or other repeat set.

The date on which the suggestion was created.

If the suggestion has been retired, a link to the observation page.

The username of the suggester.